sensor_id;sensor_type;location;lat;lon;timestamp;pressure;altitude;pressure_sealevel;temperature;humidity
21433;BME280;18592;49.708;10.900;2023-09-18T00:01:57;98132.25;;;24.65;45.29
21433;BME280;18592;49.708;10.900;2023-09-18T00:03:58;98134.22;;;24.64;45.19
21433;BME280;18592;49.708;10.900;2023-09-18T00:05:58;98131.34;;;24.61;45.43
21433;BME280;18592;49.708;10.900;2023-09-18T00:07:58;98123.31;;;24.59;44.73
21433;BME280;18592;49.708;10.900;2023-09-18T00:09:59;98125.31;;;24.59;45.08
21433;BME280;18592;49.708;10.900;2023-09-18T00:11:59;98129.97;;;24.55;45.23
21433;BME280;18592;49.708;10.900;2023-09-18T00:14:00;98125.91;;;24.52;45.18
21433;BME280;18592;49.708;10.900;2023-09-18T00:16:00;98123.47;;;24.51;45.13
21433;BME280;18592;49.708;10.900;2023-09-18T00:18:01;98134.13;;;24.49;45.49
21433;BME280;18592;49.708;10.900;2023-09-18T00:20:02;98119.31;;;24.45;45.70
21433;BME280;18592;49.708;10.900;2023-09-18T00:22:06;98117.66;;;24.44;45.34
21433;BME280;18592;49.708;10.900;2023-09-18T00:24:07;98109.22;;;24.40;45.58
21433;BME280;18592;49.708;10.900;2023-09-18T00:26:08;98114.34;;;24.38;45.71
21433;BME280;18592;49.708;10.900;2023-09-18T00:28:08;98105.50;;;24.36;45.58
21433;BME280;18592;49.708;10.900;2023-09-18T00:30:10;98107.00;;;24.34;45.82
21433;BME280;18592;49.708;10.900;2023-09-18T00:32:11;98098.56;;;24.30;45.45
21433;BME280;18592;49.708;10.900;2023-09-18T00:34:12;98102.03;;;24.27;45.52
21433;BME280;18592;49.708;10.900;2023-09-18T00:36:13;98089.63;;;24.25;45.62
21433;BME280;18592;49.708;10.900;2023-09-18T00:38:14;98083.59;;;24.23;45.56
21433;BME280;18592;49.708;10.900;2023-09-18T00:40:15;98083.50;;;24.19;45.72
21433;BME280;18592;49.708;10.900;2023-09-18T00:42:15;98078.63;;;24.16;45.63
21433;BME280;18592;49.708;10.900;2023-09-18T00:44:22;98078.97;;;24.15;45.72
21433;BME280;18592;49.708;10.900;2023-09-18T00:46:25;98075.75;;;24.13;45.87
21433;BME280;18592;49.708;10.900;2023-09-18T00:48:25;98076.44;;;24.10;45.83
21433;BME280;18592;49.708;10.900;2023-09-18T00:50:28;98072.72;;;24.06;45.53
21433;BME280;18592;49.708;10.900;2023-09-18T00:52:41;98068.97;;;24.01;45.50
21433;BME280;18592;49.708;10.900;2023-09-18T00:54:43;98069.69;;;23.98;45.97
21433;BME280;18592;49.708;10.900;2023-09-18T00:56:46;98074.78;;;23.96;45.68
21433;BME280;18592;49.708;10.900;2023-09-18T00:58:48;98075.47;;;23.93;45.86
21433;BME280;18592;49.708;10.900;2023-09-18T01:00:50;98072.63;;;23.90;45.84
21433;BME280;18592;49.708;10.900;2023-09-18T01:02:51;98064.94;;;23.87;46.07
21433;BME280;18592;49.708;10.900;2023-09-18T01:15:37;98059.09;;;24.28;44.98
21433;BME280;18592;49.708;10.900;2023-09-18T01:17:44;98060.19;;;24.12;45.18
21433;BME280;18592;49.708;10.900;2023-09-18T01:19:46;98054.25;;;24.01;45.26
21433;BME280;18592;49.708;10.900;2023-09-18T01:21:47;98053.94;;;23.90;45.71
21433;BME280;18592;49.708;10.900;2023-09-18T01:24:03;98054.06;;;23.82;45.68
21433;BME280;18592;49.708;10.900;2023-09-18T01:26:09;98049.88;;;23.76;45.96
21433;BME280;18592;49.708;10.900;2023-09-18T01:28:09;98054.53;;;23.72;45.97
21433;BME280;18592;49.708;10.900;2023-09-18T01:30:10;98057.53;;;23.67;46.04
21433;BME280;18592;49.708;10.900;2023-09-18T01:32:12;98048.28;;;23.63;46.02
21433;BME280;18592;49.708;10.900;2023-09-18T01:34:16;98044.09;;;23.57;45.92
21433;BME280;18592;49.708;10.900;2023-09-18T01:36:19;98045.97;;;23.53;45.96
21433;BME280;18592;49.708;10.900;2023-09-18T01:38:23;98041.09;;;23.50;45.99
21433;BME280;18592;49.708;10.900;2023-09-18T01:40:40;98036.56;;;23.45;46.21
21433;BME280;18592;49.708;10.900;2023-09-18T01:42:52;98044.78;;;23.42;46.34
21433;BME280;18592;49.708;10.900;2023-09-18T01:44:54;98038.31;;;23.38;46.44
21433;BME280;18592;49.708;10.900;2023-09-18T01:46:57;98048.13;;;23.35;46.42
21433;BME280;18592;49.708;10.900;2023-09-18T01:48:58;98043.59;;;23.30;46.48
21433;BME280;18592;49.708;10.900;2023-09-18T01:50:59;98041.53;;;23.27;46.35
21433;BME280;18592;49.708;10.900;2023-09-18T01:53:00;98053.34;;;23.24;46.53
21433;BME280;18592;49.708;10.900;2023-09-18T01:55:05;98046.81;;;23.20;46.46
21433;BME280;18592;49.708;10.900;2023-09-18T02:07:47;98034.69;;;23.61;45.27
21433;BME280;18592;49.708;10.900;2023-09-18T02:09:47;98033.44;;;23.47;45.66
21433;BME280;18592;49.708;10.900;2023-09-18T02:11:48;98042.91;;;23.33;45.96
21433;BME280;18592;49.708;10.900;2023-09-18T02:13:54;98035.38;;;23.22;45.88
21433;BME280;18592;49.708;10.900;2023-09-18T02:15:57;98032.31;;;23.15;46.23
21433;BME280;18592;49.708;10.900;2023-09-18T02:17:58;98033.72;;;23.09;46.33
21433;BME280;18592;49.708;10.900;2023-09-18T02:19:58;98033.13;;;23.03;46.38
21433;BME280;18592;49.708;10.900;2023-09-18T02:22:01;98040.56;;;22.99;46.45
21433;BME280;18592;49.708;10.900;2023-09-18T02:24:03;98035.22;;;22.94;46.40
21433;BME280;18592;49.708;10.900;2023-09-18T02:26:04;98028.22;;;22.88;46.60
21433;BME280;18592;49.708;10.900;2023-09-18T02:28:06;98025.00;;;22.86;46.63
21433;BME280;18592;49.708;10.900;2023-09-18T02:30:07;98014.91;;;22.82;46.61
21433;BME280;18592;49.708;10.900;2023-09-18T02:32:10;98011.66;;;22.80;46.79
21433;BME280;18592;49.708;10.900;2023-09-18T02:34:24;98011.53;;;22.76;46.88
21433;BME280;18592;49.708;10.900;2023-09-18T02:36:24;98016.13;;;22.72;46.78
21433;BME280;18592;49.708;10.900;2023-09-18T02:38:26;98009.31;;;22.69;46.94
21433;BME280;18592;49.708;10.900;2023-09-18T02:40:27;98016.34;;;22.67;47.07
21433;BME280;18592;49.708;10.900;2023-09-18T02:42:27;98007.91;;;22.63;47.08
21433;BME280;18592;49.708;10.900;2023-09-18T02:44:29;98011.03;;;22.62;47.15
21433;BME280;18592;49.708;10.900;2023-09-18T02:46:31;98002.19;;;22.60;47.24
21433;BME280;18592;49.708;10.900;2023-09-18T02:48:32;98002.88;;;22.57;47.30
21433;BME280;18592;49.708;10.900;2023-09-18T02:50:34;98002.41;;;22.55;47.20
21433;BME280;18592;49.708;10.900;2023-09-18T02:52:34;98003.09;;;22.52;47.32
21433;BME280;18592;49.708;10.900;2023-09-18T02:54:35;98001.00;;;22.49;47.39
21433;BME280;18592;49.708;10.900;2023-09-18T02:56:35;97999.72;;;22.46;47.11
21433;BME280;18592;49.708;10.900;2023-09-18T02:58:36;98005.63;;;22.45;47.35
21433;BME280;18592;49.708;10.900;2023-09-18T03:00:44;97997.97;;;22.42;47.32
21433;BME280;18592;49.708;10.900;2023-09-18T03:02:54;97998.66;;;22.39;47.33
21433;BME280;18592;49.708;10.900;2023-09-18T03:04:54;97998.16;;;22.37;47.61
21433;BME280;18592;49.708;10.900;2023-09-18T03:06:58;97989.38;;;22.35;47.49
21433;BME280;18592;49.708;10.900;2023-09-18T03:09:00;97983.72;;;22.31;47.34
21433;BME280;18592;49.708;10.900;2023-09-18T03:11:00;97974.56;;;22.31;47.46
21433;BME280;18592;49.708;10.900;2023-09-18T03:13:02;97970.50;;;22.28;47.36
21433;BME280;18592;49.708;10.900;2023-09-18T03:15:04;97965.63;;;22.25;47.48
21433;BME280;18592;49.708;10.900;2023-09-18T03:17:08;97955.66;;;22.24;47.41
21433;BME280;18592;49.708;10.900;2023-09-18T03:19:08;97957.97;;;22.22;47.52
21433;BME280;18592;49.708;10.900;2023-09-18T03:21:11;97953.59;;;22.21;47.47
21433;BME280;18592;49.708;10.900;2023-09-18T03:23:11;97955.09;;;22.19;47.67
21433;BME280;18592;49.708;10.900;2023-09-18T03:25:12;97960.13;;;22.17;47.65
21433;BME280;18592;49.708;10.900;2023-09-18T03:27:14;97952.50;;;22.13;47.75
21433;BME280;18592;49.708;10.900;2023-09-18T03:29:15;97955.28;;;22.13;47.60
21433;BME280;18592;49.708;10.900;2023-09-18T03:31:15;97960.34;;;22.11;47.52
21433;BME280;18592;49.708;10.900;2023-09-18T03:33:15;97957.09;;;22.09;47.85
21433;BME280;18592;49.708;10.900;2023-09-18T03:35:16;97952.72;;;22.08;47.67
21433;BME280;18592;49.708;10.900;2023-09-18T03:37:23;97947.50;;;22.07;47.88
21433;BME280;18592;49.708;10.900;2023-09-18T03:39:23;97951.44;;;22.06;47.79
21433;BME280;18592;49.708;10.900;2023-09-18T03:41:23;97953.41;;;22.05;47.85
21433;BME280;18592;49.708;10.900;2023-09-18T03:43:24;97953.41;;;22.05;48.01
21433;BME280;18592;49.708;10.900;2023-09-18T03:45:26;97953.72;;;22.04;48.00
21433;BME280;18592;49.708;10.900;2023-09-18T03:47:28;97939.84;;;22.04;47.63
21433;BME280;18592;49.708;10.900;2023-09-18T03:49:29;97937.88;;;22.04;47.73
21433;BME280;18592;49.708;10.900;2023-09-18T03:51:33;97937.88;;;22.04;47.66
21433;BME280;18592;49.708;10.900;2023-09-18T03:53:35;97925.63;;;22.05;47.83
21433;BME280;18592;49.708;10.900;2023-09-18T03:56:10;97929.09;;;22.02;47.69
21433;BME280;18592;49.708;10.900;2023-09-18T03:58:11;97929.56;;;22.04;47.70
21433;BME280;18592;49.708;10.900;2023-09-18T04:00:14;97923.19;;;22.04;47.93
21433;BME280;18592;49.708;10.900;2023-09-18T04:02:16;97926.78;;;22.04;47.84
21433;BME280;18592;49.708;10.900;2023-09-18T04:04:16;97920.41;;;22.04;47.84
21433;BME280;18592;49.708;10.900;2023-09-18T04:06:36;97937.88;;;22.04;47.64
21433;BME280;18592;49.708;10.900;2023-09-18T04:08:44;97926.78;;;22.04;47.69
21433;BME280;18592;49.708;10.900;2023-09-18T04:10:46;97925.97;;;22.04;47.94
21433;BME280;18592;49.708;10.900;2023-09-18T04:12:49;97926.78;;;22.04;47.99
21433;BME280;18592;49.708;10.900;2023-09-18T04:14:52;97931.88;;;22.02;47.89
21433;BME280;18592;49.708;10.900;2023-09-18T04:16:56;97941.84;;;22.03;47.97
21433;BME280;18592;49.708;10.900;2023-09-18T04:19:01;97960.09;;;22.04;47.90
21433;BME280;18592;49.708;10.900;2023-09-18T04:21:09;98011.22;;;22.03;48.07
21433;BME280;18592;49.708;10.900;2023-09-18T04:23:26;97996.53;;;22.03;48.41
21433;BME280;18592;49.708;10.900;2023-09-18T04:25:27;97961.94;;;22.00;48.21
21433;BME280;18592;49.708;10.900;2023-09-18T04:27:30;97955.72;;;22.03;48.12
21433;BME280;18592;49.708;10.900;2023-09-18T04:29:30;97970.38;;;22.04;47.82
21433;BME280;18592;49.708;10.900;2023-09-18T04:31:38;97952.13;;;22.03;47.80
21433;BME280;18592;49.708;10.900;2023-09-18T04:33:39;97933.50;;;22.03;47.83
21433;BME280;18592;49.708;10.900;2023-09-18T04:35:55;97926.78;;;22.04;47.57
21433;BME280;18592;49.708;10.900;2023-09-18T04:48:36;97915.53;;;22.66;46.70
21433;BME280;18592;49.708;10.900;2023-09-18T04:50:38;97925.78;;;22.54;46.93
21433;BME280;18592;49.708;10.900;2023-09-18T04:52:39;97932.25;;;22.46;46.91
21433;BME280;18592;49.708;10.900;2023-09-18T04:54:40;97938.34;;;22.39;47.46
21433;BME280;18592;49.708;10.900;2023-09-18T04:56:41;97938.56;;;22.34;47.46
21433;BME280;18592;49.708;10.900;2023-09-18T04:58:41;97944.00;;;22.31;47.65
21433;BME280;18592;49.708;10.900;2023-09-18T05:00:42;97940.78;;;22.29;47.44
21433;BME280;18592;49.708;10.900;2023-09-18T05:02:42;97944.22;;;22.26;47.65
21433;BME280;18592;49.708;10.900;2023-09-18T05:04:43;97939.81;;;22.25;47.61
21433;BME280;18592;49.708;10.900;2023-09-18T05:06:44;97945.72;;;22.23;47.80
21433;BME280;18592;49.708;10.900;2023-09-18T05:08:45;97943.25;;;22.22;47.83
21433;BME280;18592;49.708;10.900;2023-09-18T05:10:45;97946.03;;;22.22;47.89
21433;BME280;18592;49.708;10.900;2023-09-18T05:12:46;97950.00;;;22.21;47.83
21433;BME280;18592;49.708;10.900;2023-09-18T05:14:46;97947.22;;;22.21;47.95
21433;BME280;18592;49.708;10.900;2023-09-18T05:16:47;97950.81;;;22.21;48.18
21433;BME280;18592;49.708;10.900;2023-09-18T05:18:47;97957.50;;;22.20;48.00
21433;BME280;18592;49.708;10.900;2023-09-18T05:20:47;97967.78;;;22.20;48.00
21433;BME280;18592;49.708;10.900;2023-09-18T05:33:37;97992.31;;;22.83;47.23
21433;BME280;18592;49.708;10.900;2023-09-18T05:35:44;98006.19;;;22.71;47.43
21433;BME280;18592;49.708;10.900;2023-09-18T05:37:44;98024.09;;;22.61;47.38
21433;BME280;18592;49.708;10.900;2023-09-18T05:39:56;98032.16;;;22.54;47.56
21433;BME280;18592;49.708;10.900;2023-09-18T05:41:57;98027.63;;;22.50;47.73
21433;BME280;18592;49.708;10.900;2023-09-18T05:43:58;98029.94;;;22.48;47.89
21433;BME280;18592;49.708;10.900;2023-09-18T05:45:59;98026.69;;;22.46;48.15
21433;BME280;18592;49.708;10.900;2023-09-18T05:48:00;98017.88;;;22.44;47.89
21433;BME280;18592;49.708;10.900;2023-09-18T05:50:10;98005.16;;;22.43;47.70
21433;BME280;18592;49.708;10.900;2023-09-18T05:52:15;97997.97;;;22.42;47.90
21433;BME280;18592;49.708;10.900;2023-09-18T05:54:15;98008.75;;;22.43;48.21
21433;BME280;18592;49.708;10.900;2023-09-18T05:56:15;97997.97;;;22.42;48.60
21433;BME280;18592;49.708;10.900;2023-09-18T05:58:18;97993.56;;;22.41;48.66
21433;BME280;18592;49.708;10.900;2023-09-18T06:00:23;97985.69;;;22.43;48.77
21433;BME280;18592;49.708;10.900;2023-09-18T06:02:27;97986.53;;;22.43;49.38
21433;BME280;18592;49.708;10.900;2023-09-18T06:04:27;97993.69;;;22.44;49.44
21433;BME280;18592;49.708;10.900;2023-09-18T06:07:08;98008.75;;;22.43;48.74
21433;BME280;18592;49.708;10.900;2023-09-18T06:09:10;98002.84;;;22.45;49.22
21433;BME280;18592;49.708;10.900;2023-09-18T06:11:11;97995.31;;;22.45;49.08
21433;BME280;18592;49.708;10.900;2023-09-18T06:13:11;98004.56;;;22.49;49.09
21433;BME280;18592;49.708;10.900;2023-09-18T06:15:13;97991.50;;;22.50;49.61
21433;BME280;18592;49.708;10.900;2023-09-18T06:17:16;97987.59;;;22.51;49.46
21433;BME280;18592;49.708;10.900;2023-09-18T06:19:16;97977.75;;;22.53;49.25
21433;BME280;18592;49.708;10.900;2023-09-18T06:21:23;97987.84;;;22.58;49.49
21433;BME280;18592;49.708;10.900;2023-09-18T06:23:25;97993.53;;;22.61;50.45
21433;BME280;18592;49.708;10.900;2023-09-18T06:25:31;97986.50;;;22.64;50.29
21433;BME280;18592;49.708;10.900;2023-09-18T06:27:34;97979.09;;;22.68;50.18
21433;BME280;18592;49.708;10.900;2023-09-18T06:29:36;97981.06;;;22.67;49.79
21433;BME280;18592;49.708;10.900;2023-09-18T06:31:40;97980.50;;;22.74;49.39
21433;BME280;18592;49.708;10.900;2023-09-18T06:33:41;97968.69;;;22.77;50.64
21433;BME280;18592;49.708;10.900;2023-09-18T06:36:17;97966.84;;;22.81;50.00
21433;BME280;18592;49.708;10.900;2023-09-18T06:38:18;97958.50;;;22.81;49.99
21433;BME280;18592;49.708;10.900;2023-09-18T06:40:25;97947.03;;;22.83;49.84
21433;BME280;18592;49.708;10.900;2023-09-18T06:42:31;97928.75;;;22.82;49.94
21433;BME280;18592;49.708;10.900;2023-09-18T06:44:33;97941.59;;;22.86;49.93
21433;BME280;18592;49.708;10.900;2023-09-18T06:46:35;97947.25;;;22.90;50.10
21433;BME280;18592;49.708;10.900;2023-09-18T06:48:36;97938.59;;;22.91;50.20
21433;BME280;18592;49.708;10.900;2023-09-18T06:50:38;97940.34;;;22.96;50.10
21433;BME280;18592;49.708;10.900;2023-09-18T06:52:41;97952.38;;;23.00;50.39
21433;BME280;18592;49.708;10.900;2023-09-18T06:54:44;97933.41;;;23.02;50.40
21433;BME280;18592;49.708;10.900;2023-09-18T06:56:48;97935.47;;;23.05;50.31
21433;BME280;18592;49.708;10.900;2023-09-18T06:59:02;97934.44;;;23.09;50.27
21433;BME280;18592;49.708;10.900;2023-09-18T07:01:11;97938.00;;;23.10;50.42
21433;BME280;18592;49.708;10.900;2023-09-18T07:03:13;97925.75;;;23.11;50.25
21433;BME280;18592;49.708;10.900;2023-09-18T07:05:13;97928.16;;;23.12;50.53
21433;BME280;18592;49.708;10.900;2023-09-18T07:07:14;97931.44;;;23.14;51.15
21433;BME280;18592;49.708;10.900;2023-09-18T07:09:16;97936.25;;;23.17;50.41
21433;BME280;18592;49.708;10.900;2023-09-18T07:11:25;97940.31;;;23.20;50.52
21433;BME280;18592;49.708;10.900;2023-09-18T07:13:26;97950.66;;;23.19;50.79
21433;BME280;18592;49.708;10.900;2023-09-18T07:15:28;97932.47;;;23.22;50.30
21433;BME280;18592;49.708;10.900;2023-09-18T07:17:30;97942.09;;;23.24;50.82
21433;BME280;18592;49.708;10.900;2023-09-18T07:19:32;97940.44;;;23.23;50.69
21433;BME280;18592;49.708;10.900;2023-09-18T07:21:33;97945.31;;;23.26;50.86
21433;BME280;18592;49.708;10.900;2023-09-18T07:23:36;97955.75;;;23.29;50.56
21433;BME280;18592;49.708;10.900;2023-09-18T07:25:38;97949.00;;;23.30;50.91
21433;BME280;18592;49.708;10.900;2023-09-18T07:27:41;97944.72;;;23.33;50.53
21433;BME280;18592;49.708;10.900;2023-09-18T07:29:44;97934.88;;;23.35;50.85
21433;BME280;18592;49.708;10.900;2023-09-18T07:31:45;97931.09;;;23.40;50.76
21433;BME280;18592;49.708;10.900;2023-09-18T07:33:47;97934.34;;;23.42;50.60
21433;BME280;18592;49.708;10.900;2023-09-18T07:35:50;97945.56;;;23.46;50.91
21433;BME280;18592;49.708;10.900;2023-09-18T07:37:56;97949.28;;;23.50;50.58
21433;BME280;18592;49.708;10.900;2023-09-18T07:40:10;97947.06;;;23.55;50.74
21433;BME280;18592;49.708;10.900;2023-09-18T07:42:11;97954.34;;;23.60;50.65
21433;BME280;18592;49.708;10.900;2023-09-18T07:44:38;97956.09;;;23.64;50.75
21433;BME280;18592;49.708;10.900;2023-09-18T07:46:39;97948.63;;;23.68;50.86
21433;BME280;18592;49.708;10.900;2023-09-18T07:48:42;97949.66;;;23.76;50.70
21433;BME280;18592;49.708;10.900;2023-09-18T07:50:44;97939.91;;;23.82;50.91
21433;BME280;18592;49.708;10.900;2023-09-18T07:55:26;97958.53;;;23.93;51.25
21433;BME280;18592;49.708;10.900;2023-09-18T07:58:20;97960.28;;;23.98;50.67
21433;BME280;18592;49.708;10.900;2023-09-18T08:01:28;97969.78;;;24.09;51.18
21433;BME280;18592;49.708;10.900;2023-09-18T08:03:35;97971.16;;;24.15;51.02
21433;BME280;18592;49.708;10.900;2023-09-18T08:05:35;97972.06;;;24.19;50.90
21433;BME280;18592;49.708;10.900;2023-09-18T08:07:51;97969.41;;;24.23;50.86
21433;BME280;18592;49.708;10.900;2023-09-18T08:10:05;97978.31;;;24.28;51.14
21433;BME280;18592;49.708;10.900;2023-09-18T08:12:09;97986.06;;;24.35;50.96
21433;BME280;18592;49.708;10.900;2023-09-18T08:14:19;97978.72;;;24.42;50.96
21433;BME280;18592;49.708;10.900;2023-09-18T08:16:26;97982.88;;;24.48;51.06
21433;BME280;18592;49.708;10.900;2023-09-18T08:18:27;97977.84;;;24.54;51.01
21433;BME280;18592;49.708;10.900;2023-09-18T08:20:41;97979.31;;;24.63;51.51
21433;BME280;18592;49.708;10.900;2023-09-18T08:22:44;97985.44;;;24.69;51.36
21433;BME280;18592;49.708;10.900;2023-09-18T17:28:37;97984.34;;;23.90;51.32
21433;BME280;18592;49.708;10.900;2023-09-18T17:31:14;97988.63;;;23.88;51.12
21433;BME280;18592;49.708;10.900;2023-09-18T17:33:17;97987.00;;;23.87;50.96
21433;BME280;18592;49.708;10.900;2023-09-18T17:35:26;97985.38;;;23.86;51.07
21433;BME280;18592;49.708;10.900;2023-09-18T17:37:39;97995.72;;;23.85;50.93
21433;BME280;18592;49.708;10.900;2023-09-18T17:40:11;97992.44;;;23.83;50.86
21433;BME280;18592;49.708;10.900;2023-09-18T17:42:53;97998.75;;;23.80;51.21
21433;BME280;18592;49.708;10.900;2023-09-18T17:45:22;98009.50;;;23.82;51.04
21433;BME280;18592;49.708;10.900;2023-09-18T17:47:38;98006.28;;;23.80;50.76
21433;BME280;18592;49.708;10.900;2023-09-18T18:00:20;98019.28;;;24.28;49.35
21433;BME280;18592;49.708;10.900;2023-09-18T18:02:33;98018.75;;;24.10;50.18
21433;BME280;18592;49.708;10.900;2023-09-18T18:04:33;98008.09;;;24.00;50.23
21433;BME280;18592;49.708;10.900;2023-09-18T18:06:35;98011.81;;;23.92;50.07
21433;BME280;18592;49.708;10.900;2023-09-18T18:08:36;98017.16;;;23.85;50.35
21433;BME280;18592;49.708;10.900;2023-09-18T18:10:42;98024.94;;;23.79;50.72
21433;BME280;18592;49.708;10.900;2023-09-18T18:12:43;98025.19;;;23.74;50.47
21433;BME280;18592;49.708;10.900;2023-09-18T18:14:44;98031.81;;;23.70;50.71
21433;BME280;18592;49.708;10.900;2023-09-18T18:16:44;98022.50;;;23.66;50.59
21433;BME280;18592;49.708;10.900;2023-09-18T18:18:44;98025.19;;;23.62;50.65
21433;BME280;18592;49.708;10.900;2023-09-18T18:20:45;98026.25;;;23.58;51.00
21433;BME280;18592;49.708;10.900;2023-09-18T18:22:45;98033.66;;;23.54;50.79
21433;BME280;18592;49.708;10.900;2023-09-18T18:24:47;98038.75;;;23.52;50.94
21433;BME280;18592;49.708;10.900;2023-09-18T18:26:47;98041.09;;;23.50;50.98
21433;BME280;18592;49.708;10.900;2023-09-18T18:28:48;98028.69;;;23.47;51.25
21433;BME280;18592;49.708;10.900;2023-09-18T18:34:19;98041.09;;;23.38;51.60
21433;BME280;18592;49.708;10.900;2023-09-18T18:36:28;98041.75;;;23.34;51.38
21433;BME280;18592;49.708;10.900;2023-09-18T18:40:58;98044.31;;;23.27;51.49
21433;BME280;18592;49.708;10.900;2023-09-18T18:43:08;98051.00;;;23.26;51.63
21433;BME280;18592;49.708;10.900;2023-09-18T18:45:10;98042.22;;;23.24;51.46
21433;BME280;18592;49.708;10.900;2023-09-18T18:47:12;98045.00;;;23.24;51.98
21433;BME280;18592;49.708;10.900;2023-09-18T19:04:31;98054.84;;;23.34;51.25
21433;BME280;18592;49.708;10.900;2023-09-18T19:06:32;98057.84;;;23.29;51.34
21433;BME280;18592;49.708;10.900;2023-09-18T19:08:36;98048.09;;;23.23;51.33
21433;BME280;18592;49.708;10.900;2023-09-18T19:13:49;98054.00;;;23.09;51.67
21433;BME280;18592;49.708;10.900;2023-09-18T19:15:51;98051.91;;;23.06;51.97
21433;BME280;18592;49.708;10.900;2023-09-18T19:17:51;98055.84;;;23.05;51.63
21433;BME280;18592;49.708;10.900;2023-09-18T19:19:52;98055.72;;;23.02;51.86
21433;BME280;18592;49.708;10.900;2023-09-18T19:21:52;98051.66;;;22.99;51.88
21433;BME280;18592;49.708;10.900;2023-09-18T19:23:53;98055.59;;;22.98;52.04
21433;BME280;18592;49.708;10.900;2023-09-18T19:25:55;98061.50;;;22.97;51.92
21433;BME280;18592;49.708;10.900;2023-09-18T19:27:55;98061.00;;;22.95;51.65
21433;BME280;18592;49.708;10.900;2023-09-18T19:29:56;98051.41;;;22.92;51.62
21433;BME280;18592;49.708;10.900;2023-09-18T19:33:02;98030.56;;;22.86;51.96
21433;BME280;18592;49.708;10.900;2023-09-18T19:35:50;98024.53;;;22.84;51.72
21433;BME280;18592;49.708;10.900;2023-09-18T19:37:55;98022.44;;;22.81;52.03
21433;BME280;18592;49.708;10.900;2023-09-18T19:50:41;98024.59;;;23.32;50.87
21433;BME280;18592;49.708;10.900;2023-09-18T19:52:41;98028.53;;;23.19;51.25
21433;BME280;18592;49.708;10.900;2023-09-18T19:54:47;98029.31;;;23.08;51.25
21433;BME280;18592;49.708;10.900;2023-09-18T19:56:48;98025.00;;;22.98;52.10
21433;BME280;18592;49.708;10.900;2023-09-18T19:58:49;98031.94;;;22.92;51.75
21433;BME280;18592;49.708;10.900;2023-09-18T20:00:51;98030.56;;;22.86;52.26
21433;BME280;18592;49.708;10.900;2023-09-18T20:02:53;98032.72;;;22.81;52.39
21433;BME280;18592;49.708;10.900;2023-09-18T20:04:55;98023.47;;;22.77;52.29
21433;BME280;18592;49.708;10.900;2023-09-18T20:06:59;98026.94;;;22.73;52.61
21433;BME280;18592;49.708;10.900;2023-09-18T20:09:00;98024.00;;;22.70;52.47
21433;BME280;18592;49.708;10.900;2023-09-18T20:11:03;98025.50;;;22.67;52.61
21433;BME280;18592;49.708;10.900;2023-09-18T20:13:03;98031.44;;;22.66;52.64
21433;BME280;18592;49.708;10.900;2023-09-18T20:15:04;98025.41;;;22.64;52.93
21433;BME280;18592;49.708;10.900;2023-09-18T20:17:05;98021.81;;;22.63;52.72
21433;BME280;18592;49.708;10.900;2023-09-18T20:19:13;98016.44;;;22.58;52.88
21433;BME280;18592;49.708;10.900;2023-09-18T20:21:14;98007.28;;;22.58;52.79
21433;BME280;18592;49.708;10.900;2023-09-18T20:23:16;97996.53;;;22.56;52.92
21433;BME280;18592;49.708;10.900;2023-09-18T20:25:21;97992.47;;;22.54;52.75
21433;BME280;18592;49.708;10.900;2023-09-18T20:27:38;97985.28;;;22.53;52.88
21433;BME280;18592;49.708;10.900;2023-09-18T20:29:41;97979.25;;;22.51;52.72
21433;BME280;18592;49.708;10.900;2023-09-18T20:31:43;97974.84;;;22.50;52.98
21433;BME280;18592;49.708;10.900;2023-09-18T20:33:45;97966.03;;;22.48;52.84
21433;BME280;18592;49.708;10.900;2023-09-18T20:35:45;97957.72;;;22.48;53.02
21433;BME280;18592;49.708;10.900;2023-09-18T20:37:45;97938.94;;;22.45;52.84
21433;BME280;18592;49.708;10.900;2023-09-18T20:39:46;97926.22;;;22.44;53.27
21433;BME280;18592;49.708;10.900;2023-09-18T20:41:58;97921.00;;;22.42;53.11
21433;BME280;18592;49.708;10.900;2023-09-18T20:43:58;97922.97;;;22.42;52.51
21433;BME280;18592;49.708;10.900;2023-09-18T20:45:59;97951.91;;;22.41;52.93
21433;BME280;18592;49.708;10.900;2023-09-18T20:48:01;97978.03;;;22.40;52.94
21433;BME280;18592;49.708;10.900;2023-09-18T20:50:01;97981.19;;;22.38;52.93
21433;BME280;18592;49.708;10.900;2023-09-18T20:52:03;97986.28;;;22.36;53.08
21433;BME280;18592;49.708;10.900;2023-09-18T20:54:04;97995.38;;;22.37;53.08
21433;BME280;18592;49.708;10.900;2023-09-18T20:56:10;97999.34;;;22.36;53.07
21433;BME280;18592;49.708;10.900;2023-09-18T20:58:10;98004.06;;;22.35;52.94
21433;BME280;18592;49.708;10.900;2023-09-18T21:00:13;98003.25;;;22.35;52.81
21433;BME280;18592;49.708;10.900;2023-09-18T21:02:13;98006.03;;;22.35;52.94
21433;BME280;18592;49.708;10.900;2023-09-18T21:04:14;97999.66;;;22.34;52.77
21433;BME280;18592;49.708;10.900;2023-09-18T21:06:14;97993.31;;;22.34;53.03
21433;BME280;18592;49.708;10.900;2023-09-18T21:08:14;98003.25;;;22.35;53.24
21433;BME280;18592;49.708;10.900;2023-09-18T21:10:15;98006.38;;;22.33;53.03
21433;BME280;18592;49.708;10.900;2023-09-18T21:12:15;98011.94;;;22.33;52.55
21433;BME280;18592;49.708;10.900;2023-09-18T21:14:19;98017.81;;;22.32;53.27
21433;BME280;18592;49.708;10.900;2023-09-18T21:16:20;98020.59;;;22.32;52.61
21433;BME280;18592;49.708;10.900;2023-09-18T21:18:20;98025.38;;;22.31;53.33
21433;BME280;18592;49.708;10.900;2023-09-18T21:20:21;98026.16;;;22.32;52.60
21433;BME280;18592;49.708;10.900;2023-09-18T21:22:21;98024.53;;;22.31;53.04
21433;BME280;18592;49.708;10.900;2023-09-18T21:24:22;98028.47;;;22.30;53.01
21433;BME280;18592;49.708;10.900;2023-09-18T21:26:23;98028.47;;;22.30;52.86